Archival Weather

Chicago O'Hare International

Chicago, Illinois (KORD)

Report from: Wednesday, August 23, 2023 3:51 AM CDT
Current time: Wednesday, April 24, 2024 2:11 PM CDT

Current weather – Weather history – Daily summaries
Weather forecast

Present weatherMist
Temperature26.1°C (79.0°F)
Dew point23.9°C (75.0°F)
Winds 5 kts (2.6 m/s, 5.8 mph) Southwest (220°)
Visibility6 mi. (9.7 km)
Clouds Sky clear
Altimeter30.02 in.Hg (1017 mB)
Relative humidity88 %
Density altitude1,587 ft. (484 m)
Sea-level pressure101.6 kPa (1016 mB, 30.00 in.Hg)
Remarks Automated weather observing station with precipitation discriminator
Pressure falling more quickly
Flight conditions Visual Meteorological Conditions
Raw dataKORD 230851Z 22005KT 6SM BR CLR 26/24 A3002 RMK AO2 SLP160 T02610239 58005
An error has occurred. This application may no longer respond until reloaded. Reload 🗙